This is the latest recevied weather packets stored in our database for station/object EC1DIR-13. If no packets are shown the sender has not sent any weather packets the latest 10 day(s).
| Time | Temp. | Humidity | Pressure | Rain* | Wind** | Luminosity | Snow |
|---|---|---|---|---|---|---|---|
| 1777101350 | 14.44° C | 58% | 1018.3 hPa | 0 mm | - | 155 W/m² | - |
| 1777100420 | 13.89° C | 59% | 1018.3 hPa | 0 mm | - | 81 W/m² | - |
| 1777099516 | 13.89° C | 61% | 1018.3 hPa | 0 mm | - | 37 W/m² | - |
| 1777097722 | 13.33° C | 62% | 1018.3 hPa | 0 mm | - | 18 W/m² | - |
| 1777095010 | 13.33° C | 61% | 1018.3 hPa | 0 mm | - | 0 W/m² | - |
| 1777092314 | 13.33° C | 61% | 1017.9 hPa | 0 mm | - | 0 W/m² | - |
| 1777088704 | 13.33° C | 61% | 1017.6 hPa | 0 mm | - | 0 W/m² | - |
| 1777087801 | 13.33° C | 60% | 1017.7 hPa | 0 mm | - | 0 W/m² | - |
| 1777086059 | 13.33° C | 59% | 1017.8 hPa | 0 mm | - | 0 W/m² | - |
| 1777084260 | 13.89° C | 58% | 1017.7 hPa | 0 mm | - | 0 W/m² | - |
| 1777083368 | 13.89° C | 58% | 1017.8 hPa | 0 mm | - | 0 W/m² | - |
| 1777075262 | 13.89° C | 60% | 1018.4 hPa | 0.76 mm | - | 0 W/m² | - |
| 1777074346 | 14.44° C | 58% | 1018.7 hPa | 0.76 mm | - | 0 W/m² | - |
| 1777065342 | 15° C | 62% | 1017.7 hPa | 0 mm | - | 0 W/m² | - |
| 1777062630 | 15.56° C | 60% | 1017.4 hPa | 0 mm | - | 0 W/m² | - |
| 1777059928 | 15.56° C | 59% | 1016.6 hPa | 0 mm | - | 0 W/m² | - |
| 1777053625 | 16.67° C | 52% | 1016 hPa | 2.29 mm | - | 109 W/m² | - |
| 1777049122 | 21.11° C | 29% | 1015.7 hPa | 0 mm | - | 76 W/m² | - |
| 1777046420 | 21.67° C | 27% | 1015.6 hPa | 0 mm | - | 179 W/m² | - |
| 1777043719 | 22.22° C | 25% | 1015.8 hPa | 0 mm | - | 561 W/m² | - |
| 1777038309 | 20° C | 33% | 1016.5 hPa | 0 mm | - | 304 W/m² | - |
| 1777034704 | 19.44° C | 35% | 1016.9 hPa | 0 mm | - | 879 W/m² | - |
| 1777032060 | 18.89° C | 35% | 1017.1 hPa | 0 mm | - | 501 W/m² | - |
| 1777030259 | 17.78° C | 38% | 1017.2 hPa | 0 mm | - | 385 W/m² | - |
| 1777025749 | 16.67° C | 41% | 1017.7 hPa | 0 mm | - | 322 W/m² | - |
* Rain latest hour (hover to see other rain measurements)
** Current wind speed in m/s (hover to see current wind gust speed)